createdAt,value
2023-04-29T00:02:38.084Z,13.04
2023-04-29T00:05:24.476Z,13.02
2023-04-29T00:08:10.391Z,12.98
2023-04-29T00:10:56.200Z,12.85
2023-04-29T00:13:41.961Z,12.95
2023-04-29T00:16:27.831Z,12.93
2023-04-29T00:19:13.765Z,12.93
2023-04-29T00:21:59.657Z,12.89
2023-04-29T00:24:45.689Z,12.87
2023-04-29T00:27:32.087Z,12.87
2023-04-29T00:30:18.167Z,12.75
2023-04-29T00:33:04.548Z,12.83
2023-04-29T00:35:50.520Z,12.83
2023-04-29T00:38:36.419Z,12.79
2023-04-29T00:41:22.307Z,12.76
2023-04-29T00:44:08.916Z,12.77
2023-04-29T00:46:54.858Z,12.74
2023-04-29T00:49:40.910Z,12.75
2023-04-29T00:52:31.740Z,12.74
2023-04-29T00:55:18.717Z,12.75
2023-04-29T00:58:04.570Z,12.77
2023-04-29T01:00:50.651Z,12.77
2023-04-29T01:03:37.195Z,12.77
2023-04-29T01:06:42.051Z,12.71
2023-04-29T01:09:52.601Z,12.77
2023-04-29T01:12:46.926Z,12.79
2023-04-29T01:15:39.786Z,12.80
2023-04-29T01:18:26.673Z,12.83
2023-04-29T01:21:12.628Z,12.84
2023-04-29T01:23:58.420Z,12.85
2023-04-29T01:26:59.485Z,12.79
2023-04-29T01:30:42.512Z,12.74
2023-04-29T01:33:35.169Z,12.75
2023-04-29T01:36:28.086Z,12.78
2023-04-29T01:39:47.092Z,12.70
2023-04-29T01:42:40.479Z,12.75
2023-04-29T01:45:32.810Z,12.76
2023-04-29T01:48:19.331Z,12.80
2023-04-29T01:51:07.256Z,12.82
2023-04-29T01:53:53.591Z,12.81
2023-04-29T01:56:40.239Z,12.78
2023-04-29T01:59:35.455Z,12.83
2023-04-29T02:02:50.991Z,12.83
2023-04-29T02:06:10.310Z,12.82
2023-04-29T02:08:57.173Z,12.83
2023-04-29T02:11:43.208Z,12.82
2023-04-29T02:14:29.174Z,12.84
2023-04-29T02:17:15.248Z,12.85
2023-04-29T02:20:02.575Z,12.85
2023-04-29T02:22:48.486Z,12.81
2023-04-29T02:25:34.868Z,12.82
2023-04-29T02:28:21.244Z,12.85
2023-04-29T02:31:07.526Z,12.80
2023-04-29T02:33:54.361Z,12.81
2023-04-29T02:36:40.180Z,12.80
2023-04-29T02:39:26.154Z,12.83
2023-04-29T02:42:14.758Z,12.80
2023-04-29T02:45:01.406Z,12.82
2023-04-29T02:47:47.595Z,12.80
2023-04-29T02:50:33.764Z,12.79
2023-04-29T02:53:21.058Z,12.78
2023-04-29T02:56:06.930Z,12.78
2023-04-29T02:58:52.804Z,12.77
2023-04-29T03:01:39.010Z,12.74
2023-04-29T03:04:25.717Z,12.74
2023-04-29T03:07:12.303Z,12.74
2023-04-29T03:09:58.805Z,12.74
2023-04-29T03:12:44.872Z,12.74
2023-04-29T03:15:30.959Z,12.70
2023-04-29T03:18:16.872Z,12.67
2023-04-29T03:21:04.844Z,12.75
2023-04-29T03:23:50.762Z,12.75
2023-04-29T03:26:43.897Z,12.72
2023-04-29T03:29:30.236Z,12.77
2023-04-29T03:32:16.162Z,12.75
2023-04-29T03:35:05.407Z,12.74
2023-04-29T03:38:01.722Z,12.76
2023-04-29T03:40:51.393Z,12.72
2023-04-29T03:43:37.420Z,12.74
2023-04-29T03:46:23.646Z,12.71
2023-04-29T03:49:09.907Z,12.71
2023-04-29T03:51:55.735Z,12.69
2023-04-29T03:54:43.724Z,12.68
2023-04-29T03:57:29.669Z,12.68
2023-04-29T04:00:15.858Z,12.68
2023-04-29T04:03:08.296Z,12.65
2023-04-29T04:05:55.428Z,12.66
2023-04-29T04:08:41.622Z,12.61
2023-04-29T04:11:32.203Z,12.62
2023-04-29T04:14:22.325Z,12.64
2023-04-29T04:17:09.075Z,12.61
2023-04-29T04:19:55.879Z,12.65
2023-04-29T04:22:41.713Z,12.66
2023-04-29T04:25:48.972Z,12.63
2023-04-29T04:28:54.902Z,12.66
2023-04-29T04:32:07.080Z,12.67
2023-04-29T04:34:57.404Z,12.63
2023-04-29T04:37:43.365Z,12.68
2023-04-29T04:40:29.734Z,12.69
2023-04-29T04:43:42.204Z,12.67
2023-04-29T04:46:35.248Z,12.70
2023-04-29T04:49:27.887Z,12.70
2023-04-29T04:52:13.777Z,12.66
2023-04-29T04:55:02.413Z,12.68
2023-04-29T04:57:50.955Z,12.70
2023-04-29T05:00:36.970Z,12.67
2023-04-29T05:03:22.919Z,12.70
2023-04-29T05:06:09.480Z,12.71
2023-04-29T05:08:57.089Z,12.62
2023-04-29T05:11:43.974Z,12.71
2023-04-29T05:14:32.901Z,12.71
2023-04-29T05:17:18.609Z,12.70
2023-04-29T05:20:05.759Z,12.69
2023-04-29T05:22:52.686Z,12.70
2023-04-29T05:25:39.662Z,12.74
2023-04-29T05:28:27.642Z,12.65
2023-04-29T05:31:15.264Z,12.76
2023-04-29T05:34:00.973Z,12.81
2023-04-29T05:36:47.006Z,12.83
2023-04-29T05:39:33.368Z,12.87
2023-04-29T05:42:28.253Z,12.87
2023-04-29T05:45:14.190Z,12.96
2023-04-29T05:48:00.292Z,13.02
2023-04-29T05:50:48.289Z,13.07
2023-04-29T05:53:35.849Z,13.16
2023-04-29T05:56:22.557Z,13.23
2023-04-29T05:59:08.482Z,13.32
2023-04-29T06:01:55.008Z,13.38
2023-04-29T06:04:42.033Z,13.43
2023-04-29T06:07:52.019Z,13.55
2023-04-29T06:10:56.873Z,13.62
2023-04-29T06:13:44.636Z,13.70
2023-04-29T06:16:37.084Z,13.74
2023-04-29T06:19:25.926Z,13.78
2023-04-29T06:22:14.879Z,13.95
2023-04-29T06:25:08.079Z,13.98
2023-04-29T06:28:08.965Z,14.09
2023-04-29T06:30:56.432Z,14.13
2023-04-29T06:33:42.911Z,14.21
2023-04-29T06:36:29.144Z,14.26
2023-04-29T06:39:34.275Z,14.31
2023-04-29T06:42:49.159Z,14.34
2023-04-29T06:46:00.100Z,14.42
2023-04-29T06:48:55.889Z,14.47
2023-04-29T06:51:42.906Z,14.51
2023-04-29T06:54:30.301Z,14.54
2023-04-29T06:57:16.351Z,14.56
2023-04-29T07:00:05.780Z,14.61
2023-04-29T07:02:52.576Z,14.62
2023-04-29T07:05:42.277Z,14.67
2023-04-29T07:08:28.818Z,14.69
2023-04-29T07:11:14.735Z,14.64
2023-04-29T07:14:00.528Z,14.76
2023-04-29T07:16:54.370Z,14.75
2023-04-29T07:19:40.226Z,14.81
2023-04-29T07:22:26.433Z,14.82
2023-04-29T07:25:12.239Z,14.85
2023-04-29T07:27:58.151Z,14.85
2023-04-29T07:30:45.576Z,14.91
2023-04-29T07:33:31.933Z,14.91
2023-04-29T07:36:17.933Z,14.97
2023-04-29T07:39:05.091Z,15.02
2023-04-29T07:41:52.141Z,15.07
2023-04-29T07:44:38.628Z,15.11
2023-04-29T07:47:24.786Z,15.18
2023-04-29T07:50:11.153Z,15.24
2023-04-29T07:53:00.342Z,15.32
2023-04-29T07:55:46.250Z,15.37
2023-04-29T07:58:32.366Z,15.43
2023-04-29T08:01:18.698Z,15.53
2023-04-29T08:04:09.167Z,15.61
2023-04-29T08:07:05.259Z,15.70
2023-04-29T08:09:51.157Z,15.78
2023-04-29T08:12:36.878Z,15.85
2023-04-29T08:15:22.553Z,15.92
2023-04-29T08:18:08.653Z,15.99
2023-04-29T08:20:54.271Z,16.03
2023-04-29T08:23:40.294Z,16.08
2023-04-29T08:26:27.541Z,16.18
2023-04-29T08:29:13.366Z,16.24
2023-04-29T08:31:59.458Z,16.33
2023-04-29T08:34:45.169Z,16.44
2023-04-29T08:37:30.906Z,16.54
2023-04-29T08:40:16.957Z,16.65
2023-04-29T08:43:06.250Z,16.73
2023-04-29T08:45:52.391Z,16.86
2023-04-29T08:48:44.222Z,16.88
2023-04-29T08:51:34.726Z,17.05
2023-04-29T08:54:20.469Z,17.16
2023-04-29T08:57:06.955Z,17.24
2023-04-29T08:59:53.512Z,17.33
2023-04-29T09:02:48.619Z,17.41
2023-04-29T09:05:35.472Z,17.58
2023-04-29T09:08:24.791Z,17.68
2023-04-29T09:11:12.224Z,17.80
2023-04-29T09:14:01.787Z,17.90
2023-04-29T09:16:48.757Z,18.01
2023-04-29T09:19:36.279Z,18.12
2023-04-29T09:22:26.922Z,18.19
2023-04-29T09:25:13.552Z,18.32
2023-04-29T09:28:04.086Z,18.44
2023-04-29T09:30:50.784Z,18.58
2023-04-29T09:33:55.362Z,18.67
2023-04-29T09:36:49.204Z,18.84
2023-04-29T09:39:41.082Z,18.96
2023-04-29T09:42:26.813Z,19.06
2023-04-29T09:45:12.781Z,19.19
2023-04-29T09:48:05.901Z,19.27
2023-04-29T09:51:03.269Z,19.29
2023-04-29T09:53:49.739Z,19.45
2023-04-29T09:56:50.883Z,19.46
2023-04-29T09:59:38.832Z,19.55
2023-04-29T10:02:25.727Z,19.56
2023-04-29T10:05:12.143Z,19.57
2023-04-29T10:08:00.147Z,19.58
2023-04-29T10:10:47.378Z,19.55
2023-04-29T10:13:35.588Z,19.54
2023-04-29T10:16:31.660Z,19.49
2023-04-29T10:19:27.837Z,19.44
2023-04-29T10:22:22.136Z,19.38
2023-04-29T10:25:10.519Z,19.41
2023-04-29T10:27:56.758Z,19.38
2023-04-29T10:30:44.344Z,19.33
2023-04-29T10:33:33.949Z,19.31
2023-04-29T10:36:21.154Z,19.31
2023-04-29T10:39:44.485Z,19.24
2023-04-29T10:42:42.809Z,19.23
2023-04-29T10:45:35.094Z,19.26
2023-04-29T10:48:22.066Z,19.28
2023-04-29T10:51:08.345Z,19.27
2023-04-29T10:54:15.636Z,19.14
2023-04-29T10:57:01.961Z,19.19
2023-04-29T10:59:48.222Z,19.02
2023-04-29T11:02:34.468Z,19.05
2023-04-29T11:05:32.152Z,18.97
2023-04-29T11:08:26.641Z,18.85
2023-04-29T11:11:14.864Z,18.77
2023-04-29T11:14:04.108Z,18.77
2023-04-29T11:16:57.237Z,18.69
2023-04-29T11:19:46.762Z,18.63
2023-04-29T11:22:35.928Z,18.59
2023-04-29T11:25:28.635Z,18.56
2023-04-29T11:28:18.514Z,18.52
2023-04-29T11:31:04.806Z,18.49
2023-04-29T11:33:51.328Z,18.47
2023-04-29T11:36:37.460Z,18.40
2023-04-29T11:39:23.520Z,18.39
2023-04-29T11:42:10.214Z,18.37
2023-04-29T11:45:00.665Z,18.33
2023-04-29T11:47:47.613Z,18.28
2023-04-29T11:50:33.933Z,18.23
2023-04-29T11:53:32.413Z,18.19
2023-04-29T11:56:24.315Z,18.16
2023-04-29T11:59:10.011Z,18.14
2023-04-29T12:01:58.205Z,18.08
2023-04-29T12:04:49.311Z,18.03
2023-04-29T12:07:36.621Z,18.00
2023-04-29T12:10:22.504Z,18.01
2023-04-29T12:13:10.205Z,18.00
2023-04-29T12:15:56.584Z,17.99
2023-04-29T12:18:43.472Z,18.00
2023-04-29T12:21:29.553Z,18.02
2023-04-29T12:24:15.591Z,18.01
2023-04-29T12:27:01.707Z,17.97
2023-04-29T12:29:48.033Z,18.05
2023-04-29T12:32:34.244Z,18.12
2023-04-29T12:35:20.210Z,18.16
2023-04-29T12:38:06.574Z,18.18
2023-04-29T12:40:52.839Z,18.17
2023-04-29T12:43:38.973Z,18.21
2023-04-29T12:46:24.773Z,18.18
2023-04-29T12:49:45.150Z,18.17
2023-04-29T12:52:31.321Z,18.12
2023-04-29T12:55:17.421Z,18.13
2023-04-29T12:58:11.002Z,18.10
2023-04-29T13:00:57.710Z,18.07
2023-04-29T13:03:43.988Z,18.06
2023-04-29T13:06:30.013Z,17.97
2023-04-29T13:09:19.159Z,17.98
2023-04-29T13:12:05.846Z,17.89
2023-04-29T13:14:52.047Z,17.87
2023-04-29T13:17:38.904Z,17.84
2023-04-29T13:20:24.712Z,17.77
2023-04-29T13:23:12.270Z,17.71
2023-04-29T13:25:58.497Z,17.62
2023-04-29T13:28:45.169Z,17.50
2023-04-29T13:31:31.075Z,17.50
2023-04-29T13:34:17.175Z,17.46
2023-04-29T13:37:03.278Z,17.40
2023-04-29T13:39:56.890Z,17.40
2023-04-29T13:42:49.383Z,17.42
2023-04-29T13:45:42.438Z,17.45
2023-04-29T13:49:01.656Z,17.45
2023-04-29T13:52:13.024Z,17.50
2023-04-29T14:00:47.103Z,17.50
2023-04-29T14:03:39.581Z,17.51
2023-04-29T14:06:25.750Z,17.54
2023-04-29T14:09:11.688Z,17.53
2023-04-29T14:11:57.819Z,17.54
2023-04-29T14:14:44.013Z,17.53
2023-04-29T14:17:30.256Z,17.63
2023-04-29T14:20:16.571Z,17.59
2023-04-29T14:23:02.512Z,17.63
2023-04-29T14:25:48.364Z,17.62
2023-04-29T14:28:36.820Z,17.58
2023-04-29T14:31:36.438Z,17.55
2023-04-29T14:34:25.464Z,17.50
2023-04-29T14:37:13.560Z,17.42
2023-04-29T14:40:00.931Z,17.34
2023-04-29T14:42:49.102Z,17.23
2023-04-29T14:45:35.712Z,17.23
2023-04-29T14:48:21.629Z,17.21
2023-04-29T14:51:08.200Z,17.10
2023-04-29T14:53:54.941Z,16.97
2023-04-29T14:56:40.840Z,16.96
2023-04-29T14:59:28.593Z,16.85
2023-04-29T15:02:14.777Z,16.82
2023-04-29T15:05:00.799Z,16.82
2023-04-29T15:07:47.647Z,16.81
2023-04-29T15:10:33.607Z,16.85
2023-04-29T15:13:19.394Z,16.87
2023-04-29T15:16:08.149Z,16.94
2023-04-29T15:18:54.337Z,16.96
2023-04-29T15:21:40.460Z,16.95
2023-04-29T15:24:26.690Z,17.02
2023-04-29T15:27:12.816Z,17.02
2023-04-29T15:29:58.739Z,17.05
2023-04-29T15:32:45.084Z,16.98
2023-04-29T15:35:31.799Z,17.09
2023-04-29T15:38:18.506Z,17.09
2023-04-29T15:41:04.555Z,17.01
2023-04-29T15:43:50.547Z,17.08
2023-04-29T15:46:36.724Z,17.03
2023-04-29T15:49:24.539Z,17.02
2023-04-29T15:52:10.835Z,16.95
2023-04-29T15:54:58.505Z,16.97
2023-04-29T15:57:44.664Z,16.85
2023-04-29T16:00:30.592Z,16.84
2023-04-29T16:03:16.916Z,16.81
2023-04-29T16:06:02.809Z,16.80
2023-04-29T16:08:57.728Z,16.78
2023-04-29T16:11:43.704Z,16.80
2023-04-29T16:14:34.872Z,16.80
2023-04-29T16:17:21.244Z,16.81
2023-04-29T16:20:08.259Z,16.80
2023-04-29T16:22:54.015Z,16.72
2023-04-29T16:25:41.615Z,16.77
2023-04-29T16:28:27.514Z,16.79
2023-04-29T16:31:13.735Z,16.79
2023-04-29T16:34:00.552Z,16.81
2023-04-29T16:36:46.600Z,16.81
2023-04-29T16:39:32.622Z,16.81
2023-04-29T16:42:19.761Z,16.88
2023-04-29T16:45:06.264Z,16.88
2023-04-29T16:47:52.566Z,16.86
2023-04-29T16:50:38.495Z,16.86
2023-04-29T16:53:25.294Z,16.91
2023-04-29T16:56:45.071Z,16.93
2023-04-29T16:59:34.408Z,16.92
2023-04-29T17:02:24.567Z,16.86
2023-04-29T17:05:43.220Z,16.89
2023-04-29T17:08:29.091Z,16.88
2023-04-29T17:11:15.276Z,16.82
2023-04-29T17:14:01.333Z,16.83
2023-04-29T17:16:47.448Z,16.73
2023-04-29T17:19:35.878Z,16.69
2023-04-29T17:22:22.812Z,16.62
2023-04-29T17:25:09.253Z,16.54
2023-04-29T17:27:55.467Z,16.47
2023-04-29T17:30:41.802Z,16.45
2023-04-29T17:33:54.931Z,16.42
2023-04-29T17:37:03.531Z,16.37
2023-04-29T17:39:49.599Z,16.35
2023-04-29T17:42:35.248Z,16.34
2023-04-29T17:45:20.983Z,16.36
2023-04-29T17:48:07.051Z,16.33
2023-04-29T17:50:54.117Z,16.32
2023-04-29T17:53:39.970Z,16.29
2023-04-29T17:56:26.567Z,16.27
2023-04-29T17:59:12.640Z,16.21
2023-04-29T18:01:59.077Z,16.16
2023-04-29T18:04:44.838Z,16.12
2023-04-29T18:07:31.475Z,16.12
2023-04-29T18:10:17.769Z,16.07
2023-04-29T18:13:04.031Z,16.03
2023-04-29T18:15:50.154Z,16.05
2023-04-29T18:18:36.390Z,15.98
2023-04-29T18:21:27.403Z,15.94
2023-04-29T18:24:13.419Z,15.96
2023-04-29T18:26:59.247Z,15.92
2023-04-29T18:29:45.806Z,15.88
2023-04-29T18:32:31.659Z,15.80
2023-04-29T18:35:17.590Z,15.80
2023-04-29T18:38:03.807Z,15.74
2023-04-29T18:40:49.972Z,15.73
2023-04-29T18:43:35.937Z,15.59
2023-04-29T18:46:22.020Z,15.59
2023-04-29T18:49:08.848Z,15.55
2023-04-29T18:51:54.859Z,15.50
2023-04-29T18:54:41.401Z,15.53
2023-04-29T18:57:28.306Z,15.55
2023-04-29T19:00:16.660Z,15.56
2023-04-29T19:03:03.308Z,15.52
2023-04-29T19:05:50.034Z,15.55
2023-04-29T19:08:36.376Z,15.54
2023-04-29T19:11:23.391Z,15.48
2023-04-29T19:14:09.940Z,15.41
2023-04-29T19:16:59.607Z,15.27
2023-04-29T19:19:46.448Z,15.28
2023-04-29T19:22:34.531Z,15.23
2023-04-29T19:25:21.767Z,15.18
2023-04-29T19:28:08.627Z,15.24
2023-04-29T19:30:54.793Z,15.19
2023-04-29T19:33:40.904Z,15.23
2023-04-29T19:36:30.686Z,15.20
2023-04-29T19:39:18.426Z,15.22
2023-04-29T19:42:04.959Z,15.18
2023-04-29T19:44:51.719Z,15.15
2023-04-29T19:47:37.807Z,15.16
2023-04-29T19:50:24.199Z,15.12
2023-04-29T19:53:11.453Z,15.08
2023-04-29T19:55:57.381Z,15.03
2023-04-29T19:58:43.548Z,15.08
2023-04-29T20:01:29.689Z,15.07
2023-04-29T20:04:15.618Z,15.05
2023-04-29T20:07:01.652Z,15.06
2023-04-29T20:09:48.469Z,15.06
2023-04-29T20:12:35.910Z,15.03
2023-04-29T20:15:22.064Z,15.01
2023-04-29T20:18:08.058Z,14.98
2023-04-29T20:20:54.057Z,14.95
2023-04-29T20:23:41.546Z,14.90
2023-04-29T20:26:27.478Z,14.92
2023-04-29T20:29:13.668Z,14.94
2023-04-29T20:31:59.524Z,14.94
2023-04-29T20:34:45.876Z,14.91
2023-04-29T20:37:31.988Z,14.89
2023-04-29T20:40:18.481Z,14.85
2023-04-29T20:43:04.719Z,14.81
2023-04-29T20:45:50.924Z,14.83
2023-04-29T20:48:36.808Z,14.80
2023-04-29T20:51:22.603Z,14.75
2023-04-29T20:54:08.780Z,14.70
2023-04-29T20:56:56.738Z,14.69
2023-04-29T20:59:44.064Z,14.65
2023-04-29T21:02:30.100Z,14.61
2023-04-29T21:05:15.835Z,14.54
2023-04-29T21:08:01.789Z,14.41
2023-04-29T21:10:47.593Z,14.39
2023-04-29T21:13:33.834Z,14.34
2023-04-29T21:16:19.813Z,14.27
2023-04-29T21:19:05.891Z,14.18
2023-04-29T21:21:52.097Z,14.16
2023-04-29T21:24:38.185Z,14.10
2023-04-29T21:27:24.453Z,14.10
2023-04-29T21:30:12.147Z,14.11
2023-04-29T21:32:58.517Z,14.09
2023-04-29T21:35:48.282Z,14.03
2023-04-29T21:38:34.953Z,14.05
2023-04-29T21:41:33.050Z,14.04
2023-04-29T21:44:18.948Z,14.02
2023-04-29T21:47:05.069Z,14.00
2023-04-29T21:49:51.361Z,13.93
2023-04-29T21:52:37.534Z,13.97
2023-04-29T21:55:23.760Z,13.96
2023-04-29T21:58:11.035Z,13.90
2023-04-29T22:01:03.208Z,13.93
2023-04-29T22:03:49.043Z,13.88
2023-04-29T22:06:36.781Z,13.84
2023-04-29T22:09:23.927Z,13.88
2023-04-29T22:12:09.676Z,13.81
2023-04-29T22:14:55.405Z,13.76
2023-04-29T22:17:41.284Z,13.74
2023-04-29T22:20:27.655Z,13.71
2023-04-29T22:23:13.961Z,13.73
2023-04-29T22:26:01.454Z,13.69
2023-04-29T22:28:47.591Z,13.56
2023-04-29T22:31:35.571Z,13.47
2023-04-29T22:34:21.456Z,13.39
2023-04-29T22:37:07.183Z,13.39
2023-04-29T22:39:53.793Z,13.34
2023-04-29T22:42:42.045Z,13.28
2023-04-29T22:45:28.453Z,13.29
2023-04-29T22:48:14.554Z,13.32
2023-04-29T22:51:01.018Z,13.30
2023-04-29T22:53:46.969Z,13.20
2023-04-29T22:56:33.584Z,13.16
2023-04-29T22:59:19.290Z,13.17
2023-04-29T23:02:05.259Z,13.12
2023-04-29T23:04:51.523Z,13.05
2023-04-29T23:07:37.604Z,13.04
2023-04-29T23:10:23.287Z,13.04
2023-04-29T23:13:09.095Z,13.02
2023-04-29T23:16:00.343Z,13.00
2023-04-29T23:18:46.408Z,12.95
2023-04-29T23:21:32.576Z,12.96
2023-04-29T23:24:18.652Z,12.94
2023-04-29T23:27:04.887Z,12.93
2023-04-29T23:29:50.783Z,12.90
2023-04-29T23:32:36.748Z,12.91
2023-04-29T23:35:22.745Z,12.91
2023-04-29T23:38:08.998Z,12.87
2023-04-29T23:40:54.801Z,12.85
2023-04-29T23:43:40.821Z,12.86
2023-04-29T23:46:26.979Z,12.80
2023-04-29T23:49:12.899Z,12.80
2023-04-29T23:51:58.632Z,12.72
2023-04-29T23:54:44.258Z,12.69
2023-04-29T23:57:30.027Z,12.73
